createdAt,value
2022-08-17T00:00:51.642Z,1004.53
2022-08-17T00:01:51.776Z,1004.52
2022-08-17T00:02:45.106Z,1004.49
2022-08-17T00:03:45.098Z,1004.55
2022-08-17T00:04:50.353Z,1004.56
2022-08-17T00:05:45.123Z,1004.56
2022-08-17T00:06:45.129Z,1004.59
2022-08-17T00:07:45.050Z,1004.56
2022-08-17T00:08:45.041Z,1004.60
2022-08-17T00:09:45.061Z,1004.58
2022-08-17T00:10:45.024Z,1004.57
2022-08-17T00:12:34.866Z,1004.56
2022-08-17T00:12:56.464Z,1004.58
2022-08-17T00:13:44.991Z,1004.58
2022-08-17T00:14:44.996Z,1004.58
2022-08-17T00:15:44.961Z,1004.55
2022-08-17T00:16:56.217Z,1004.56
2022-08-17T00:17:44.938Z,1004.55
2022-08-17T00:19:02.139Z,1004.57
2022-08-17T00:19:44.960Z,1004.56
2022-08-17T00:20:44.906Z,1004.58
2022-08-17T00:22:30.734Z,1004.60
2022-08-17T00:22:44.880Z,1004.63
2022-08-17T00:23:49.287Z,1004.60
2022-08-17T00:24:44.936Z,1004.59
2022-08-17T00:25:44.876Z,1004.61
2022-08-17T00:26:45.473Z,1004.60
2022-08-17T00:27:44.830Z,1004.63
2022-08-17T00:28:45.433Z,1004.62
2022-08-17T00:29:44.812Z,1004.64
2022-08-17T00:30:52.821Z,1004.63
2022-08-17T00:31:44.818Z,1004.66
2022-08-17T00:33:11.855Z,1004.63
2022-08-17T00:33:44.768Z,1004.62
2022-08-17T00:34:44.759Z,1004.69
2022-08-17T00:35:44.762Z,1004.70
2022-08-17T00:36:44.790Z,1004.70
2022-08-17T00:37:44.820Z,1004.72
2022-08-17T00:38:44.700Z,1004.68
2022-08-17T00:39:44.773Z,1004.67
2022-08-17T00:40:45.145Z,1004.68
2022-08-17T00:41:44.694Z,1004.68
2022-08-17T00:42:44.680Z,1004.64
2022-08-17T00:43:44.675Z,1004.68
2022-08-17T00:44:44.648Z,1004.68
2022-08-17T00:45:44.636Z,1004.66
2022-08-17T00:46:44.641Z,1004.69
2022-08-17T00:47:44.608Z,1004.69
2022-08-17T00:48:44.608Z,1004.65
2022-08-17T00:49:44.594Z,1004.70
2022-08-17T00:50:44.566Z,1004.72
2022-08-17T00:51:44.560Z,1004.71
2022-08-17T00:52:44.553Z,1004.72
2022-08-17T00:53:44.548Z,1004.74
2022-08-17T00:54:44.567Z,1004.73
2022-08-17T00:55:44.529Z,1004.75
2022-08-17T00:56:45.444Z,1004.72
2022-08-17T00:57:44.519Z,1004.73
2022-08-17T00:58:44.486Z,1004.74
2022-08-17T00:59:44.478Z,1004.74
2022-08-17T01:00:44.527Z,1004.73
2022-08-17T01:01:44.527Z,1004.78
2022-08-17T01:02:44.526Z,1004.77
2022-08-17T01:03:44.439Z,1004.77
2022-08-17T01:04:44.426Z,1004.75
2022-08-17T01:05:44.413Z,1004.81
2022-08-17T01:06:44.407Z,1004.82
2022-08-17T01:07:44.399Z,1004.79
2022-08-17T01:08:44.377Z,1004.77
2022-08-17T01:09:44.367Z,1004.79
2022-08-17T01:10:58.588Z,1004.78
2022-08-17T01:11:44.361Z,1004.81
2022-08-17T01:12:44.324Z,1004.77
2022-08-17T01:13:44.330Z,1004.79
2022-08-17T01:14:44.308Z,1004.85
2022-08-17T01:15:46.175Z,1004.80
2022-08-17T01:16:44.288Z,1004.82
2022-08-17T01:17:44.292Z,1004.83
2022-08-17T01:18:44.266Z,1004.83
2022-08-17T01:19:44.260Z,1004.82
2022-08-17T01:20:48.524Z,1004.81
2022-08-17T01:21:44.255Z,1004.80
2022-08-17T01:22:44.225Z,1004.80
2022-08-17T01:23:44.219Z,1004.81
2022-08-17T01:24:44.416Z,1004.80
2022-08-17T01:25:44.194Z,1004.81
2022-08-17T01:26:44.184Z,1004.79
2022-08-17T01:27:44.194Z,1004.83
2022-08-17T01:28:54.181Z,1004.80
2022-08-17T01:29:44.153Z,1004.80
2022-08-17T01:30:57.047Z,1004.80
2022-08-17T01:31:44.182Z,1004.83
2022-08-17T01:32:44.115Z,1004.78
2022-08-17T01:33:44.134Z,1004.81
2022-08-17T01:34:50.098Z,1004.79
2022-08-17T01:35:44.083Z,1004.83
2022-08-17T01:36:44.077Z,1004.83
2022-08-17T01:37:44.049Z,1004.84
2022-08-17T01:38:44.054Z,1004.83
2022-08-17T01:39:44.342Z,1004.84
2022-08-17T01:40:44.087Z,1004.86
2022-08-17T01:41:44.893Z,1004.85
2022-08-17T01:42:44.023Z,1004.82
2022-08-17T01:43:44.044Z,1004.82
2022-08-17T01:44:43.989Z,1004.85
2022-08-17T01:45:43.964Z,1004.84
2022-08-17T01:46:43.967Z,1004.85
2022-08-17T01:47:43.951Z,1004.86
2022-08-17T01:48:43.969Z,1004.86
2022-08-17T01:49:43.936Z,1004.87
2022-08-17T01:50:43.918Z,1004.87
2022-08-17T01:51:43.907Z,1004.85
2022-08-17T01:52:43.918Z,1004.88
2022-08-17T01:53:43.883Z,1004.90
2022-08-17T01:54:43.884Z,1004.88
2022-08-17T01:55:43.859Z,1004.88
2022-08-17T01:56:43.865Z,1004.85
2022-08-17T01:57:43.863Z,1004.84
2022-08-17T01:58:43.845Z,1004.85
2022-08-17T01:59:43.847Z,1004.86
2022-08-17T02:00:51.731Z,1004.82
2022-08-17T02:01:43.886Z,1004.82
2022-08-17T02:02:43.792Z,1004.79
2022-08-17T02:03:53.492Z,1004.79
2022-08-17T02:04:43.921Z,1004.80
2022-08-17T02:05:43.761Z,1004.84
2022-08-17T02:06:52.675Z,1004.81
2022-08-17T02:08:00.456Z,1004.81
2022-08-17T02:09:03.052Z,1004.81
2022-08-17T02:09:43.934Z,1004.84
2022-08-17T02:10:46.642Z,1004.83
2022-08-17T02:11:43.701Z,1004.80
2022-08-17T02:12:43.685Z,1004.83
2022-08-17T02:13:43.675Z,1004.80
2022-08-17T02:14:43.673Z,1004.86
2022-08-17T02:15:43.669Z,1004.81
2022-08-17T02:16:43.651Z,1004.83
2022-08-17T02:17:43.625Z,1004.82
2022-08-17T02:18:43.621Z,1004.79
2022-08-17T02:19:43.621Z,1004.78
2022-08-17T02:20:43.615Z,1004.78
2022-08-17T02:21:43.596Z,1004.77
2022-08-17T02:22:43.585Z,1004.80
2022-08-17T02:23:43.567Z,1004.80
2022-08-17T02:25:00.131Z,1004.77
2022-08-17T02:25:43.552Z,1004.79
2022-08-17T02:26:43.538Z,1004.79
2022-08-17T02:27:43.513Z,1004.80
2022-08-17T02:28:43.514Z,1004.82
2022-08-17T02:29:43.517Z,1004.82
2022-08-17T02:30:59.513Z,1004.83
2022-08-17T02:31:43.492Z,1004.83
2022-08-17T02:32:43.484Z,1004.85
2022-08-17T02:33:43.824Z,1004.81
2022-08-17T02:34:43.443Z,1004.81
2022-08-17T02:35:43.424Z,1004.77
2022-08-17T02:36:43.425Z,1004.80
2022-08-17T02:37:43.417Z,1004.80
2022-08-17T02:38:43.415Z,1004.79
2022-08-17T02:39:43.423Z,1004.78
2022-08-17T02:40:43.382Z,1004.79
2022-08-17T02:41:43.361Z,1004.78
2022-08-17T02:42:43.387Z,1004.81
2022-08-17T02:43:43.343Z,1004.78
2022-08-17T02:44:43.332Z,1004.79
2022-08-17T02:45:43.314Z,1004.77
2022-08-17T02:46:43.312Z,1004.76
2022-08-17T02:47:43.300Z,1004.74
2022-08-17T02:48:43.292Z,1004.75
2022-08-17T02:49:47.543Z,1004.72
2022-08-17T02:50:43.277Z,1004.75
2022-08-17T02:51:43.260Z,1004.71
2022-08-17T02:52:44.178Z,1004.75
2022-08-17T02:53:43.226Z,1004.81
2022-08-17T02:54:43.213Z,1004.78
2022-08-17T02:55:43.212Z,1004.75
2022-08-17T02:56:43.218Z,1004.74
2022-08-17T02:57:43.274Z,1004.73
2022-08-17T02:58:43.202Z,1004.71
2022-08-17T02:59:48.315Z,1004.69
2022-08-17T03:00:43.155Z,1004.72
2022-08-17T03:01:43.233Z,1004.75
2022-08-17T03:02:43.170Z,1004.70
2022-08-17T03:03:43.128Z,1004.74
2022-08-17T03:04:43.111Z,1004.71
2022-08-17T03:05:43.103Z,1004.76
2022-08-17T03:06:43.187Z,1004.82
2022-08-17T03:07:43.078Z,1004.78
2022-08-17T03:08:43.085Z,1004.76
2022-08-17T03:09:43.068Z,1004.72
2022-08-17T03:10:43.048Z,1004.74
2022-08-17T03:11:43.043Z,1004.72
2022-08-17T03:12:43.077Z,1004.72
2022-08-17T03:13:43.020Z,1004.78
2022-08-17T03:14:43.018Z,1004.80
2022-08-17T03:15:44.422Z,1004.76
2022-08-17T03:16:43.135Z,1004.81
2022-08-17T03:17:42.962Z,1004.80
2022-08-17T03:18:42.994Z,1004.81
2022-08-17T03:19:43.322Z,1004.85
2022-08-17T03:20:42.941Z,1004.84
2022-08-17T03:21:42.931Z,1004.82
2022-08-17T03:22:42.938Z,1004.81
2022-08-17T03:23:42.924Z,1004.81
2022-08-17T03:24:42.907Z,1004.84
2022-08-17T03:25:43.456Z,1004.79
2022-08-17T03:26:42.941Z,1004.78
2022-08-17T03:27:42.869Z,1004.80
2022-08-17T03:28:42.859Z,1004.81
2022-08-17T03:29:42.836Z,1004.78
2022-08-17T03:30:42.843Z,1004.76
2022-08-17T03:31:42.838Z,1004.74
2022-08-17T03:32:42.882Z,1004.75
2022-08-17T03:33:42.790Z,1004.72
2022-08-17T03:34:42.791Z,1004.71
2022-08-17T03:35:42.783Z,1004.71
2022-08-17T03:36:42.774Z,1004.70
2022-08-17T03:37:42.823Z,1004.72
2022-08-17T03:38:42.778Z,1004.70
2022-08-17T03:39:42.758Z,1004.71
2022-08-17T03:40:56.624Z,1004.75
2022-08-17T03:41:42.734Z,1004.73
2022-08-17T03:42:42.746Z,1004.74
2022-08-17T03:43:42.686Z,1004.70
2022-08-17T03:44:42.679Z,1004.75
2022-08-17T03:45:42.703Z,1004.74
2022-08-17T03:46:42.670Z,1004.76
2022-08-17T03:47:42.637Z,1004.76
2022-08-17T03:48:42.784Z,1004.76
2022-08-17T03:49:42.606Z,1004.76
2022-08-17T03:50:42.598Z,1004.74
2022-08-17T03:51:42.605Z,1004.76
2022-08-17T03:52:43.506Z,1004.77
2022-08-17T03:53:42.580Z,1004.72
2022-08-17T03:54:42.590Z,1004.74
2022-08-17T03:55:42.548Z,1004.73
2022-08-17T03:56:42.549Z,1004.72
2022-08-17T03:57:42.539Z,1004.75
2022-08-17T03:58:42.822Z,1004.74
2022-08-17T03:59:42.516Z,1004.75
2022-08-17T04:00:42.504Z,1004.73
2022-08-17T04:01:42.580Z,1004.74
2022-08-17T04:02:42.477Z,1004.75
2022-08-17T04:03:42.460Z,1004.73
2022-08-17T04:04:42.449Z,1004.74
2022-08-17T04:05:42.442Z,1004.75
2022-08-17T04:06:42.442Z,1004.73
2022-08-17T04:07:42.426Z,1004.77
2022-08-17T04:08:42.414Z,1004.77
2022-08-17T04:09:42.419Z,1004.76
2022-08-17T04:10:45.120Z,1004.74
2022-08-17T04:11:42.369Z,1004.75
2022-08-17T04:12:42.381Z,1004.75
2022-08-17T04:13:42.351Z,1004.77
2022-08-17T04:14:53.504Z,1004.78
2022-08-17T04:15:42.345Z,1004.79
2022-08-17T04:16:42.327Z,1004.80
2022-08-17T04:17:42.335Z,1004.78
2022-08-17T04:18:42.328Z,1004.79
2022-08-17T04:19:42.458Z,1004.77
2022-08-17T04:20:42.270Z,1004.78
2022-08-17T04:21:42.271Z,1004.74
2022-08-17T04:22:42.257Z,1004.75
2022-08-17T04:23:42.246Z,1004.77
2022-08-17T04:24:42.256Z,1004.79
2022-08-17T04:25:42.241Z,1004.79
2022-08-17T04:26:53.001Z,1004.80
2022-08-17T04:27:42.203Z,1004.82
2022-08-17T04:28:42.207Z,1004.81
2022-08-17T04:29:54.137Z,1004.79
2022-08-17T04:30:42.179Z,1004.79
2022-08-17T04:31:42.165Z,1004.81
2022-08-17T04:33:04.290Z,1004.82
2022-08-17T04:33:42.136Z,1004.79
2022-08-17T04:34:42.119Z,1004.80
2022-08-17T04:35:42.119Z,1004.82
2022-08-17T04:36:42.121Z,1004.84
2022-08-17T04:37:42.123Z,1004.84
2022-08-17T04:38:42.075Z,1004.84
2022-08-17T04:39:42.104Z,1004.84
2022-08-17T04:40:42.073Z,1004.84
2022-08-17T04:41:43.328Z,1004.89
2022-08-17T04:42:42.035Z,1004.91
2022-08-17T04:43:42.027Z,1004.93
2022-08-17T04:44:42.032Z,1004.95
2022-08-17T04:45:55.342Z,1004.99
2022-08-17T04:46:42.033Z,1004.99
2022-08-17T04:47:41.994Z,1004.99
2022-08-17T04:48:41.969Z,1005.00
2022-08-17T04:49:41.968Z,1005.00
2022-08-17T04:50:41.959Z,1004.98
2022-08-17T04:51:47.923Z,1004.98
2022-08-17T04:52:43.377Z,1005.00
2022-08-17T04:53:41.913Z,1005.01
2022-08-17T04:54:41.915Z,1004.96
2022-08-17T04:55:41.884Z,1004.99
2022-08-17T04:56:41.884Z,1005.00
2022-08-17T04:57:45.081Z,1005.03
2022-08-17T04:58:41.864Z,1004.99
2022-08-17T04:59:41.850Z,1005.03
2022-08-17T05:00:41.839Z,1005.02
2022-08-17T05:01:41.868Z,1005.02
2022-08-17T05:02:49.634Z,1005.01
2022-08-17T05:03:41.843Z,1005.05
2022-08-17T05:04:41.824Z,1005.09
2022-08-17T05:05:41.788Z,1005.08
2022-08-17T05:06:41.771Z,1005.10
2022-08-17T05:07:41.769Z,1005.07
2022-08-17T05:08:41.753Z,1005.10
2022-08-17T05:09:41.731Z,1005.07
2022-08-17T05:10:45.305Z,1005.05
2022-08-17T05:11:44.997Z,1005.10
2022-08-17T05:12:41.705Z,1005.12
2022-08-17T05:13:41.721Z,1005.14
2022-08-17T05:14:41.694Z,1005.13
2022-08-17T05:15:44.744Z,1005.15
2022-08-17T05:16:41.682Z,1005.16
2022-08-17T05:17:41.700Z,1005.16
2022-08-17T05:18:41.653Z,1005.14
2022-08-17T05:19:41.645Z,1005.15
2022-08-17T05:20:41.628Z,1005.17
2022-08-17T05:21:41.612Z,1005.15
2022-08-17T05:22:41.594Z,1005.17
2022-08-17T05:23:42.713Z,1005.17
2022-08-17T05:24:43.731Z,1005.18
2022-08-17T05:25:41.635Z,1005.21
2022-08-17T05:26:41.582Z,1005.20
2022-08-17T05:27:41.550Z,1005.25
2022-08-17T05:28:41.539Z,1005.24
2022-08-17T05:29:41.561Z,1005.23
2022-08-17T05:30:41.504Z,1005.24
2022-08-17T05:31:41.510Z,1005.21
2022-08-17T05:32:41.521Z,1005.23
2022-08-17T05:33:46.146Z,1005.20
2022-08-17T05:34:41.469Z,1005.24
2022-08-17T05:35:41.478Z,1005.23
2022-08-17T05:36:43.484Z,1005.24
2022-08-17T05:37:41.454Z,1005.28
2022-08-17T05:38:41.416Z,1005.25
2022-08-17T05:39:41.470Z,1005.23
2022-08-17T05:40:41.434Z,1005.25
2022-08-17T05:41:41.400Z,1005.23
2022-08-17T05:42:41.413Z,1005.22
2022-08-17T05:43:41.373Z,1005.23
2022-08-17T05:44:41.354Z,1005.25
2022-08-17T05:45:54.896Z,1005.25
2022-08-17T05:46:41.369Z,1005.26
2022-08-17T05:47:41.326Z,1005.30
2022-08-17T05:48:41.316Z,1005.35
2022-08-17T05:49:41.308Z,1005.36
2022-08-17T05:50:41.293Z,1005.35
2022-08-17T05:51:41.286Z,1005.34
2022-08-17T05:52:41.286Z,1005.37
2022-08-17T05:53:41.273Z,1005.34
2022-08-17T05:54:41.250Z,1005.32
2022-08-17T05:55:41.278Z,1005.31
2022-08-17T05:56:41.231Z,1005.32
2022-08-17T05:57:43.604Z,1005.33
2022-08-17T05:58:41.205Z,1005.36
2022-08-17T05:59:41.272Z,1005.36
2022-08-17T06:00:42.312Z,1005.35
2022-08-17T06:01:41.286Z,1005.36
2022-08-17T06:02:45.564Z,1005.34
2022-08-17T06:03:41.192Z,1005.34
2022-08-17T06:04:41.129Z,1005.36
2022-08-17T06:05:41.201Z,1005.32
2022-08-17T06:06:41.132Z,1005.32
2022-08-17T06:07:41.126Z,1005.31
2022-08-17T06:08:41.112Z,1005.33
2022-08-17T06:09:41.084Z,1005.34
2022-08-17T06:10:41.106Z,1005.37
2022-08-17T06:11:41.103Z,1005.40
2022-08-17T06:12:41.049Z,1005.44
2022-08-17T06:13:41.050Z,1005.47
2022-08-17T06:14:41.083Z,1005.49
2022-08-17T06:15:41.043Z,1005.55
2022-08-17T06:16:41.012Z,1005.55
2022-08-17T06:17:40.997Z,1005.54
2022-08-17T06:18:41.098Z,1005.52
2022-08-17T06:19:41.232Z,1005.53
2022-08-17T06:20:40.968Z,1005.51
2022-08-17T06:21:40.995Z,1005.52
2022-08-17T06:22:40.960Z,1005.50
2022-08-17T06:23:40.928Z,1005.52
2022-08-17T06:24:40.948Z,1005.50
2022-08-17T06:25:41.529Z,1005.46
2022-08-17T06:26:43.375Z,1005.49
2022-08-17T06:27:40.908Z,1005.48
2022-08-17T06:28:40.872Z,1005.49
2022-08-17T06:29:41.045Z,1005.48
2022-08-17T06:31:00.241Z,1005.51
2022-08-17T06:31:40.854Z,1005.49
2022-08-17T06:32:40.956Z,1005.49
2022-08-17T06:33:41.594Z,1005.50
2022-08-17T06:34:40.837Z,1005.49
2022-08-17T06:35:40.823Z,1005.48
2022-08-17T06:36:40.794Z,1005.50
2022-08-17T06:37:40.785Z,1005.54
2022-08-17T06:38:40.766Z,1005.57
2022-08-17T06:39:40.930Z,1005.57
2022-08-17T06:40:40.765Z,1005.58
2022-08-17T06:41:40.785Z,1005.60
2022-08-17T06:42:54.790Z,1005.59
2022-08-17T06:43:42.379Z,1005.59
2022-08-17T06:44:43.525Z,1005.55
2022-08-17T06:45:40.733Z,1005.55
2022-08-17T06:46:40.710Z,1005.58
2022-08-17T06:47:40.690Z,1005.58
2022-08-17T06:48:40.668Z,1005.55
2022-08-17T06:49:40.695Z,1005.59
2022-08-17T06:50:40.698Z,1005.57
2022-08-17T06:51:40.648Z,1005.61
2022-08-17T06:52:55.706Z,1005.60
2022-08-17T06:53:40.615Z,1005.58
2022-08-17T06:54:40.596Z,1005.61
2022-08-17T06:55:40.637Z,1005.62
2022-08-17T06:56:53.233Z,1005.62
2022-08-17T06:57:40.602Z,1005.60
2022-08-17T06:58:40.572Z,1005.61
2022-08-17T06:59:54.955Z,1005.60
2022-08-17T07:00:40.598Z,1005.60
2022-08-17T07:01:40.647Z,1005.58
2022-08-17T07:02:52.076Z,1005.61
2022-08-17T07:03:40.534Z,1005.62
2022-08-17T07:04:41.468Z,1005.65
2022-08-17T07:05:40.500Z,1005.64
2022-08-17T07:06:40.468Z,1005.65
2022-08-17T07:07:40.463Z,1005.66
2022-08-17T07:08:40.481Z,1005.69
2022-08-17T07:09:40.989Z,1005.69
2022-08-17T07:10:40.450Z,1005.66
2022-08-17T07:11:40.594Z,1005.73
2022-08-17T07:12:40.978Z,1005.72
2022-08-17T07:13:40.399Z,1005.69
2022-08-17T07:14:40.388Z,1005.69
2022-08-17T07:15:40.480Z,1005.68
2022-08-17T07:16:40.395Z,1005.69
2022-08-17T07:17:47.263Z,1005.70
2022-08-17T07:18:40.359Z,1005.73
2022-08-17T07:19:40.404Z,1005.71
2022-08-17T07:20:40.320Z,1005.71
2022-08-17T07:21:40.333Z,1005.67
2022-08-17T07:22:53.520Z,1005.67
2022-08-17T07:23:40.324Z,1005.66
2022-08-17T07:24:40.274Z,1005.60
2022-08-17T07:25:40.425Z,1005.61
2022-08-17T07:26:40.242Z,1005.61
2022-08-17T07:27:40.247Z,1005.65
2022-08-17T07:28:40.227Z,1005.67
2022-08-17T07:29:40.224Z,1005.63
2022-08-17T07:30:45.695Z,1005.68
2022-08-17T07:31:40.247Z,1005.64
2022-08-17T07:32:40.184Z,1005.69
2022-08-17T07:33:40.168Z,1005.67
2022-08-17T07:34:40.291Z,1005.67
2022-08-17T07:35:41.433Z,1005.72
2022-08-17T07:36:40.135Z,1005.72
2022-08-17T07:37:40.147Z,1005.70
2022-08-17T07:38:40.122Z,1005.71
2022-08-17T07:40:15.215Z,1005.69
2022-08-17T07:40:40.184Z,1005.68
2022-08-17T07:41:53.310Z,1005.69
2022-08-17T07:42:44.910Z,1005.69
2022-08-17T07:43:40.107Z,1005.69
2022-08-17T07:44:40.047Z,1005.68
2022-08-17T07:45:40.054Z,1005.74
2022-08-17T07:46:40.041Z,1005.73
2022-08-17T07:47:40.083Z,1005.77
2022-08-17T07:48:40.009Z,1005.77
2022-08-17T07:49:40.014Z,1005.77
2022-08-17T07:50:39.985Z,1005.77
2022-08-17T07:51:40.028Z,1005.77
2022-08-17T07:52:51.932Z,1005.76
2022-08-17T07:53:40.073Z,1005.76
2022-08-17T07:54:39.949Z,1005.73
2022-08-17T07:55:39.939Z,1005.74
2022-08-17T07:56:39.919Z,1005.78
2022-08-17T07:57:39.932Z,1005.78
2022-08-17T07:58:39.906Z,1005.79
2022-08-17T07:59:43.307Z,1005.76
2022-08-17T08:00:39.911Z,1005.77
2022-08-17T08:01:42.060Z,1005.77
2022-08-17T08:02:40.578Z,1005.72
2022-08-17T08:03:39.866Z,1005.74
2022-08-17T08:05:50.390Z,1005.77
2022-08-17T08:06:39.829Z,1005.76
2022-08-17T08:07:39.831Z,1005.77
2022-08-17T08:08:39.876Z,1005.75
2022-08-17T08:09:39.817Z,1005.77
2022-08-17T08:10:42.577Z,1005.80
2022-08-17T08:11:44.111Z,1005.79
2022-08-17T08:12:39.782Z,1005.79
2022-08-17T08:13:39.739Z,1005.80
2022-08-17T08:14:39.734Z,1005.79
2022-08-17T08:15:39.752Z,1005.74
2022-08-17T08:16:39.716Z,1005.78
2022-08-17T08:17:39.710Z,1005.77
2022-08-17T08:18:39.745Z,1005.76
2022-08-17T08:19:39.737Z,1005.78
2022-08-17T08:20:53.517Z,1005.82
2022-08-17T08:21:39.669Z,1005.81
2022-08-17T08:22:39.638Z,1005.82
2022-08-17T08:23:39.638Z,1005.86
2022-08-17T08:24:39.622Z,1005.84
2022-08-17T08:25:39.685Z,1005.87
2022-08-17T08:26:39.601Z,1005.90
2022-08-17T08:27:39.590Z,1005.89
2022-08-17T08:28:39.572Z,1005.92
2022-08-17T08:29:39.610Z,1005.96
2022-08-17T08:30:39.590Z,1005.93
2022-08-17T08:31:42.353Z,1005.90
2022-08-17T08:32:39.605Z,1005.89
2022-08-17T08:33:39.532Z,1005.88
2022-08-17T08:34:47.988Z,1005.85
2022-08-17T08:35:39.525Z,1005.85
2022-08-17T08:36:56.634Z,1005.84
2022-08-17T08:37:42.940Z,1005.80
2022-08-17T08:38:39.642Z,1005.84
2022-08-17T08:39:39.540Z,1005.84
2022-08-17T08:40:39.460Z,1005.83
2022-08-17T08:41:39.447Z,1005.82
2022-08-17T08:42:39.451Z,1005.80
2022-08-17T08:43:39.443Z,1005.77
2022-08-17T08:44:59.846Z,1005.77
2022-08-17T08:45:39.453Z,1005.77
2022-08-17T08:46:39.394Z,1005.76
2022-08-17T08:47:39.385Z,1005.76
2022-08-17T08:48:53.639Z,1005.78
2022-08-17T08:50:02.716Z,1005.78
2022-08-17T08:50:39.433Z,1005.81
2022-08-17T08:51:39.333Z,1005.81
2022-08-17T08:52:39.331Z,1005.79
2022-08-17T08:53:39.326Z,1005.85
2022-08-17T08:54:39.371Z,1005.83
2022-08-17T08:55:39.352Z,1005.81
2022-08-17T08:56:39.316Z,1005.80
2022-08-17T08:57:39.274Z,1005.79
2022-08-17T08:58:41.697Z,1005.76
2022-08-17T08:59:42.144Z,1005.77
2022-08-17T09:00:39.283Z,1005.80
2022-08-17T09:01:40.221Z,1005.76
2022-08-17T09:02:39.231Z,1005.80
2022-08-17T09:03:52.383Z,1005.79
2022-08-17T09:05:10.023Z,1005.77
2022-08-17T09:05:39.206Z,1005.80
2022-08-17T09:06:40.093Z,1005.82
2022-08-17T09:07:39.181Z,1005.80
2022-08-17T09:08:39.157Z,1005.82
2022-08-17T09:09:39.151Z,1005.82
2022-08-17T09:10:39.147Z,1005.80
2022-08-17T09:12:02.062Z,1005.83
2022-08-17T09:12:39.131Z,1005.80
2022-08-17T09:13:39.113Z,1005.81
2022-08-17T09:14:47.133Z,1005.80
2022-08-17T09:15:39.127Z,1005.81
2022-08-17T09:16:39.101Z,1005.78
2022-08-17T09:17:39.621Z,1005.80
2022-08-17T09:19:03.327Z,1005.79
2022-08-17T09:19:39.128Z,1005.83
2022-08-17T09:20:39.030Z,1005.81
2022-08-17T09:21:39.069Z,1005.79
2022-08-17T09:22:39.020Z,1005.79
2022-08-17T09:23:39.019Z,1005.81
2022-08-17T09:24:38.994Z,1005.77
2022-08-17T09:25:38.987Z,1005.75
2022-08-17T09:26:39.010Z,1005.74
2022-08-17T09:27:38.976Z,1005.70
2022-08-17T09:28:38.960Z,1005.68
2022-08-17T09:29:38.996Z,1005.70
2022-08-17T09:30:38.936Z,1005.69
2022-08-17T09:31:48.150Z,1005.73
2022-08-17T09:32:38.989Z,1005.73
2022-08-17T09:33:38.889Z,1005.72
2022-08-17T09:34:38.957Z,1005.73
2022-08-17T09:35:38.866Z,1005.73
2022-08-17T09:36:38.885Z,1005.65
2022-08-17T09:37:38.844Z,1005.69
2022-08-17T09:38:38.906Z,1005.68
2022-08-17T09:39:38.887Z,1005.64
2022-08-17T09:40:38.828Z,1005.66
2022-08-17T09:41:38.817Z,1005.71
2022-08-17T09:42:38.900Z,1005.73
2022-08-17T09:43:38.809Z,1005.76
2022-08-17T09:44:38.793Z,1005.75
2022-08-17T09:45:38.756Z,1005.77
2022-08-17T09:46:38.962Z,1005.80
2022-08-17T09:47:39.433Z,1005.82
2022-08-17T09:48:38.807Z,1005.81
2022-08-17T09:49:38.758Z,1005.87
2022-08-17T09:50:55.299Z,1005.84
2022-08-17T09:51:38.701Z,1005.82
2022-08-17T09:52:38.702Z,1005.83
2022-08-17T09:53:38.687Z,1005.81
2022-08-17T09:54:40.118Z,1005.78
2022-08-17T09:55:38.744Z,1005.79
2022-08-17T09:56:43.735Z,1005.76
2022-08-17T09:57:38.644Z,1005.74
2022-08-17T09:58:38.627Z,1005.73
2022-08-17T09:59:38.889Z,1005.77
2022-08-17T10:00:39.125Z,1005.75
2022-08-17T10:01:38.693Z,1005.76
2022-08-17T10:02:38.621Z,1005.77
2022-08-17T10:03:38.576Z,1005.74
2022-08-17T10:04:39.682Z,1005.78
2022-08-17T10:05:38.550Z,1005.74
2022-08-17T10:06:38.645Z,1005.70
2022-08-17T10:07:38.547Z,1005.71
2022-08-17T10:08:38.554Z,1005.70
2022-08-17T10:09:38.517Z,1005.67
2022-08-17T10:10:38.505Z,1005.67
2022-08-17T10:11:38.490Z,1005.63
2022-08-17T10:12:38.496Z,1005.64
2022-08-17T10:13:38.514Z,1005.64
2022-08-17T10:14:44.422Z,1005.64
2022-08-17T10:15:38.487Z,1005.64
2022-08-17T10:16:38.434Z,1005.63
2022-08-17T10:17:38.429Z,1005.69
2022-08-17T10:18:38.635Z,1005.68
2022-08-17T10:19:38.419Z,1005.68
2022-08-17T10:20:38.382Z,1005.67
2022-08-17T10:21:38.364Z,1005.65
2022-08-17T10:22:38.416Z,1005.64
2022-08-17T10:23:38.455Z,1005.62
2022-08-17T10:24:38.348Z,1005.67
2022-08-17T10:25:54.060Z,1005.68
2022-08-17T10:26:40.517Z,1005.70
2022-08-17T10:27:38.331Z,1005.71
2022-08-17T10:28:38.495Z,1005.69
2022-08-17T10:29:49.200Z,1005.67
2022-08-17T10:30:38.293Z,1005.67
2022-08-17T10:31:38.265Z,1005.70
2022-08-17T10:32:38.259Z,1005.65
2022-08-17T10:33:38.296Z,1005.67
2022-08-17T10:34:41.019Z,1005.72
2022-08-17T10:35:39.117Z,1005.71
2022-08-17T10:36:38.259Z,1005.70
2022-08-17T10:37:38.252Z,1005.70
2022-08-17T10:38:38.212Z,1005.67
2022-08-17T10:39:38.268Z,1005.64
2022-08-17T10:40:38.176Z,1005.62
2022-08-17T10:41:40.433Z,1005.60
2022-08-17T10:42:38.166Z,1005.60
2022-08-17T10:43:38.179Z,1005.60
2022-08-17T10:44:41.259Z,1005.61
2022-08-17T10:45:38.141Z,1005.64
2022-08-17T10:46:38.119Z,1005.68
2022-08-17T10:47:52.847Z,1005.66
2022-08-17T10:48:38.107Z,1005.67
2022-08-17T10:49:38.223Z,1005.68
2022-08-17T10:50:38.122Z,1005.67
2022-08-17T10:51:38.109Z,1005.64
2022-08-17T10:52:38.058Z,1005.70
2022-08-17T10:53:38.037Z,1005.69
2022-08-17T10:54:38.061Z,1005.70
2022-08-17T10:55:38.123Z,1005.64
2022-08-17T10:56:38.029Z,1005.61
2022-08-17T10:57:38.033Z,1005.62
2022-08-17T10:58:37.995Z,1005.63
2022-08-17T10:59:37.982Z,1005.63
2022-08-17T11:00:38.004Z,1005.61
2022-08-17T11:01:38.091Z,1005.64
2022-08-17T11:02:38.106Z,1005.61
2022-08-17T11:03:37.987Z,1005.58
2022-08-17T11:04:37.938Z,1005.57
2022-08-17T11:05:41.468Z,1005.55
2022-08-17T11:06:38.080Z,1005.52
2022-08-17T11:07:37.896Z,1005.51
2022-08-17T11:08:38.006Z,1005.52
2022-08-17T11:09:37.885Z,1005.51
2022-08-17T11:10:37.945Z,1005.47
2022-08-17T11:11:38.671Z,1005.45
2022-08-17T11:12:37.889Z,1005.48
2022-08-17T11:13:37.821Z,1005.46
2022-08-17T11:14:37.877Z,1005.50
2022-08-17T11:15:37.820Z,1005.47
2022-08-17T11:16:37.811Z,1005.51
2022-08-17T11:17:37.793Z,1005.51
2022-08-17T11:18:38.487Z,1005.50
2022-08-17T11:19:37.764Z,1005.49
2022-08-17T11:20:37.747Z,1005.45
2022-08-17T11:21:37.735Z,1005.44
2022-08-17T11:22:37.755Z,1005.44
2022-08-17T11:23:37.739Z,1005.44
2022-08-17T11:24:37.731Z,1005.42
2022-08-17T11:25:37.712Z,1005.38
2022-08-17T11:26:37.707Z,1005.40
2022-08-17T11:27:37.703Z,1005.38
2022-08-17T11:28:37.710Z,1005.38
2022-08-17T11:29:37.717Z,1005.40
2022-08-17T11:30:37.650Z,1005.35
2022-08-17T11:31:38.487Z,1005.38
2022-08-17T11:32:37.634Z,1005.35
2022-08-17T11:33:38.298Z,1005.36
2022-08-17T11:34:37.612Z,1005.38
2022-08-17T11:35:37.619Z,1005.38
2022-08-17T11:36:37.581Z,1005.37
2022-08-17T11:37:37.584Z,1005.37
2022-08-17T11:38:37.571Z,1005.44
2022-08-17T11:39:37.629Z,1005.34
2022-08-17T11:40:37.597Z,1005.38
2022-08-17T11:41:37.533Z,1005.40
2022-08-17T11:42:37.528Z,1005.42
2022-08-17T11:43:42.661Z,1005.41
2022-08-17T11:44:37.723Z,1005.37
2022-08-17T11:45:37.533Z,1005.36
2022-08-17T11:46:37.486Z,1005.35
2022-08-17T11:47:37.476Z,1005.37
2022-08-17T11:48:37.453Z,1005.36
2022-08-17T11:49:37.447Z,1005.32
2022-08-17T11:50:37.504Z,1005.29
2022-08-17T11:51:37.437Z,1005.31
2022-08-17T11:52:37.422Z,1005.24
2022-08-17T11:53:38.191Z,1005.28
2022-08-17T11:54:37.405Z,1005.26
2022-08-17T11:55:41.734Z,1005.25
2022-08-17T11:56:37.389Z,1005.26
2022-08-17T11:57:37.632Z,1005.24
2022-08-17T11:58:37.431Z,1005.26
2022-08-17T11:59:37.366Z,1005.31
2022-08-17T12:00:37.355Z,1005.25
2022-08-17T12:01:37.380Z,1005.30
2022-08-17T12:02:37.328Z,1005.28
2022-08-17T12:03:37.337Z,1005.28
2022-08-17T12:04:37.321Z,1005.35
2022-08-17T12:05:37.287Z,1005.32
2022-08-17T12:06:37.267Z,1005.31